sensor_id;sensor_type;location;lat;lon;timestamp;temperature;humidity
75442;DHT22;64019;48.312;14.226;2022-11-20T00:02:22;2.10;99.90
75442;DHT22;64019;48.312;14.226;2022-11-20T00:04:48;2.20;99.90
75442;DHT22;64019;48.312;14.226;2022-11-20T00:07:13;2.30;99.90
75442;DHT22;64019;48.312;14.226;2022-11-20T00:09:39;2.30;99.90
75442;DHT22;64019;48.312;14.226;2022-11-20T00:12:05;2.10;99.90
75442;DHT22;64019;48.312;14.226;2022-11-20T00:14:30;2.10;99.90
75442;DHT22;64019;48.312;14.226;2022-11-20T00:16:56;2.10;99.90
75442;DHT22;64019;48.312;14.226;2022-11-20T00:19:21;2.10;99.90
75442;DHT22;64019;48.312;14.226;2022-11-20T00:21:47;2.20;99.90
75442;DHT22;64019;48.312;14.226;2022-11-20T00:24:13;2.20;99.90
75442;DHT22;64019;48.312;14.226;2022-11-20T00:26:38;2.10;99.90
75442;DHT22;64019;48.312;14.226;2022-11-20T00:29:04;2.10;99.90
75442;DHT22;64019;48.312;14.226;2022-11-20T00:31:30;2.10;99.90
75442;DHT22;64019;48.312;14.226;2022-11-20T00:33:57;2.10;99.90
75442;DHT22;64019;48.312;14.226;2022-11-20T00:36:25;2.20;99.90
75442;DHT22;64019;48.312;14.226;2022-11-20T00:38:52;2.10;99.90
75442;DHT22;64019;48.312;14.226;2022-11-20T00:41:17;2.00;99.90
75442;DHT22;64019;48.312;14.226;2022-11-20T00:43:43;2.00;99.90
75442;DHT22;64019;48.312;14.226;2022-11-20T00:46:18;2.00;99.90
75442;DHT22;64019;48.312;14.226;2022-11-20T00:48:45;2.10;99.90
75442;DHT22;64019;48.312;14.226;2022-11-20T00:51:13;2.00;99.90
75442;DHT22;64019;48.312;14.226;2022-11-20T00:53:39;2.00;99.90
75442;DHT22;64019;48.312;14.226;2022-11-20T00:56:06;2.10;99.90
75442;DHT22;64019;48.312;14.226;2022-11-20T00:58:37;2.10;99.90
75442;DHT22;64019;48.312;14.226;2022-11-20T01:01:11;2.10;99.90
75442;DHT22;64019;48.312;14.226;2022-11-20T01:03:39;2.20;99.90
75442;DHT22;64019;48.312;14.226;2022-11-20T01:06:23;2.10;99.90
75442;DHT22;64019;48.312;14.226;2022-11-20T01:08:50;2.10;99.90
75442;DHT22;64019;48.312;14.226;2022-11-20T01:11:22;2.00;99.90
75442;DHT22;64019;48.312;14.226;2022-11-20T01:13:49;2.10;99.90
75442;DHT22;64019;48.312;14.226;2022-11-20T01:16:26;2.10;99.90
75442;DHT22;64019;48.312;14.226;2022-11-20T01:18:55;2.20;99.90
75442;DHT22;64019;48.312;14.226;2022-11-20T01:21:30;2.20;99.90
75442;DHT22;64019;48.312;14.226;2022-11-20T01:23:57;2.20;99.90
75442;DHT22;64019;48.312;14.226;2022-11-20T01:26:26;2.20;99.90
75442;DHT22;64019;48.312;14.226;2022-11-20T01:28:53;2.20;99.90
75442;DHT22;64019;48.312;14.226;2022-11-20T01:31:24;2.20;99.90
75442;DHT22;64019;48.312;14.226;2022-11-20T01:33:52;2.20;99.90
75442;DHT22;64019;48.312;14.226;2022-11-20T01:36:20;2.30;99.90
75442;DHT22;64019;48.312;14.226;2022-11-20T01:38:46;2.20;99.90
75442;DHT22;64019;48.312;14.226;2022-11-20T01:41:14;2.30;99.90
75442;DHT22;64019;48.312;14.226;2022-11-20T01:44:00;2.30;99.90
75442;DHT22;64019;48.312;14.226;2022-11-20T01:46:26;2.20;99.90
75442;DHT22;64019;48.312;14.226;2022-11-20T01:48:58;2.20;99.90
75442;DHT22;64019;48.312;14.226;2022-11-20T01:51:45;2.20;99.90
75442;DHT22;64019;48.312;14.226;2022-11-20T01:54:20;2.30;99.90
75442;DHT22;64019;48.312;14.226;2022-11-20T01:56:49;2.20;99.90
75442;DHT22;64019;48.312;14.226;2022-11-20T01:59:18;2.30;99.90
75442;DHT22;64019;48.312;14.226;2022-11-20T02:01:44;2.20;99.90
75442;DHT22;64019;48.312;14.226;2022-11-20T02:04:10;2.20;99.90
75442;DHT22;64019;48.312;14.226;2022-11-20T02:06:42;2.20;99.90
75442;DHT22;64019;48.312;14.226;2022-11-20T02:09:09;2.40;99.90
75442;DHT22;64019;48.312;14.226;2022-11-20T02:11:35;2.30;99.90
75442;DHT22;64019;48.312;14.226;2022-11-20T02:14:01;2.40;99.90
75442;DHT22;64019;48.312;14.226;2022-11-20T02:16:30;2.30;99.90
75442;DHT22;64019;48.312;14.226;2022-11-20T02:18:59;2.30;99.90
75442;DHT22;64019;48.312;14.226;2022-11-20T02:24:12;2.20;99.90
75442;DHT22;64019;48.312;14.226;2022-11-20T02:27:04;2.20;99.90
75442;DHT22;64019;48.312;14.226;2022-11-20T02:29:35;2.30;99.90
75442;DHT22;64019;48.312;14.226;2022-11-20T02:32:03;2.30;99.90
75442;DHT22;64019;48.312;14.226;2022-11-20T02:34:28;2.20;99.90
75442;DHT22;64019;48.312;14.226;2022-11-20T02:36:55;2.30;99.90
75442;DHT22;64019;48.312;14.226;2022-11-20T02:39:23;2.40;99.90
75442;DHT22;64019;48.312;14.226;2022-11-20T02:41:52;2.40;99.90
75442;DHT22;64019;48.312;14.226;2022-11-20T02:44:18;2.40;99.90
75442;DHT22;64019;48.312;14.226;2022-11-20T02:46:43;2.40;99.90
75442;DHT22;64019;48.312;14.226;2022-11-20T02:49:09;2.30;99.90
75442;DHT22;64019;48.312;14.226;2022-11-20T02:51:35;2.30;99.90
75442;DHT22;64019;48.312;14.226;2022-11-20T02:54:00;2.30;99.90
75442;DHT22;64019;48.312;14.226;2022-11-20T02:56:26;2.20;99.90
75442;DHT22;64019;48.312;14.226;2022-11-20T02:58:52;2.20;99.90
75442;DHT22;64019;48.312;14.226;2022-11-20T03:01:18;2.20;99.90
75442;DHT22;64019;48.312;14.226;2022-11-20T03:03:44;2.20;99.90
75442;DHT22;64019;48.312;14.226;2022-11-20T03:06:09;2.20;99.90
75442;DHT22;64019;48.312;14.226;2022-11-20T03:08:35;2.30;99.90
75442;DHT22;64019;48.312;14.226;2022-11-20T03:11:05;2.30;99.90
75442;DHT22;64019;48.312;14.226;2022-11-20T03:13:31;2.30;99.90
75442;DHT22;64019;48.312;14.226;2022-11-20T03:15:57;2.20;99.90
75442;DHT22;64019;48.312;14.226;2022-11-20T03:18:23;2.20;99.90
75442;DHT22;64019;48.312;14.226;2022-11-20T03:20:48;2.30;99.90
75442;DHT22;64019;48.312;14.226;2022-11-20T03:23:14;2.40;99.90
75442;DHT22;64019;48.312;14.226;2022-11-20T03:25:40;2.30;99.90
75442;DHT22;64019;48.312;14.226;2022-11-20T03:28:05;2.30;99.90
75442;DHT22;64019;48.312;14.226;2022-11-20T03:30:31;2.30;99.90
75442;DHT22;64019;48.312;14.226;2022-11-20T03:32:57;2.30;99.90
75442;DHT22;64019;48.312;14.226;2022-11-20T03:35:22;2.40;99.90
75442;DHT22;64019;48.312;14.226;2022-11-20T03:37:48;2.40;99.90
75442;DHT22;64019;48.312;14.226;2022-11-20T03:40:14;2.30;99.90
75442;DHT22;64019;48.312;14.226;2022-11-20T03:42:39;2.30;99.90
75442;DHT22;64019;48.312;14.226;2022-11-20T03:45:15;2.20;99.90
75442;DHT22;64019;48.312;14.226;2022-11-20T03:47:41;2.20;99.90
75442;DHT22;64019;48.312;14.226;2022-11-20T03:50:07;2.30;99.90
75442;DHT22;64019;48.312;14.226;2022-11-20T03:52:33;2.20;99.90
75442;DHT22;64019;48.312;14.226;2022-11-20T03:54:59;2.20;99.90
75442;DHT22;64019;48.312;14.226;2022-11-20T03:57:24;2.20;99.90
75442;DHT22;64019;48.312;14.226;2022-11-20T03:59:50;2.20;99.90
75442;DHT22;64019;48.312;14.226;2022-11-20T04:02:15;2.20;99.90
75442;DHT22;64019;48.312;14.226;2022-11-20T04:04:41;2.30;99.90
75442;DHT22;64019;48.312;14.226;2022-11-20T04:07:07;2.30;99.90
75442;DHT22;64019;48.312;14.226;2022-11-20T04:09:32;2.30;99.90
75442;DHT22;64019;48.312;14.226;2022-11-20T04:11:58;2.20;99.90
75442;DHT22;64019;48.312;14.226;2022-11-20T04:14:23;2.20;99.90
75442;DHT22;64019;48.312;14.226;2022-11-20T04:16:49;2.20;99.90
75442;DHT22;64019;48.312;14.226;2022-11-20T04:19:16;2.20;99.90
75442;DHT22;64019;48.312;14.226;2022-11-20T04:21:45;2.20;99.90
75442;DHT22;64019;48.312;14.226;2022-11-20T04:24:10;2.20;99.90
75442;DHT22;64019;48.312;14.226;2022-11-20T04:26:37;2.20;99.90
75442;DHT22;64019;48.312;14.226;2022-11-20T04:29:03;2.10;99.90
75442;DHT22;64019;48.312;14.226;2022-11-20T04:31:31;2.10;99.90
75442;DHT22;64019;48.312;14.226;2022-11-20T04:34:04;2.00;99.90
75442;DHT22;64019;48.312;14.226;2022-11-20T04:36:30;1.90;99.90
75442;DHT22;64019;48.312;14.226;2022-11-20T04:39:02;2.00;99.90
75442;DHT22;64019;48.312;14.226;2022-11-20T04:41:30;2.00;99.90
75442;DHT22;64019;48.312;14.226;2022-11-20T04:43:58;2.00;99.90
75442;DHT22;64019;48.312;14.226;2022-11-20T04:46:32;2.10;99.90
75442;DHT22;64019;48.312;14.226;2022-11-20T04:48:59;2.10;99.90
75442;DHT22;64019;48.312;14.226;2022-11-20T04:51:25;2.00;99.90
75442;DHT22;64019;48.312;14.226;2022-11-20T04:53:50;2.10;99.90
75442;DHT22;64019;48.312;14.226;2022-11-20T04:56:16;2.10;99.90
75442;DHT22;64019;48.312;14.226;2022-11-20T04:58:42;2.10;99.90
75442;DHT22;64019;48.312;14.226;2022-11-20T05:01:22;2.10;99.90
75442;DHT22;64019;48.312;14.226;2022-11-20T05:03:48;2.20;99.90
75442;DHT22;64019;48.312;14.226;2022-11-20T05:06:16;2.20;99.90
75442;DHT22;64019;48.312;14.226;2022-11-20T05:08:42;2.30;99.90
75442;DHT22;64019;48.312;14.226;2022-11-20T05:11:16;2.20;99.90
75442;DHT22;64019;48.312;14.226;2022-11-20T05:13:42;2.30;99.90
75442;DHT22;64019;48.312;14.226;2022-11-20T05:16:26;2.30;99.90
75442;DHT22;64019;48.312;14.226;2022-11-20T05:18:54;2.30;99.90
75442;DHT22;64019;48.312;14.226;2022-11-20T05:21:20;2.20;99.90
75442;DHT22;64019;48.312;14.226;2022-11-20T05:23:46;2.30;99.90
75442;DHT22;64019;48.312;14.226;2022-11-20T05:26:15;2.30;99.90
75442;DHT22;64019;48.312;14.226;2022-11-20T05:28:41;2.20;99.90
75442;DHT22;64019;48.312;14.226;2022-11-20T05:31:12;2.20;99.90
75442;DHT22;64019;48.312;14.226;2022-11-20T05:33:40;2.30;99.90
75442;DHT22;64019;48.312;14.226;2022-11-20T05:36:07;2.20;99.90
75442;DHT22;64019;48.312;14.226;2022-11-20T05:38:33;2.20;99.90
75442;DHT22;64019;48.312;14.226;2022-11-20T05:41:14;2.30;99.90
75442;DHT22;64019;48.312;14.226;2022-11-20T05:43:41;2.30;99.90
75442;DHT22;64019;48.312;14.226;2022-11-20T05:46:09;2.30;99.90
75442;DHT22;64019;48.312;14.226;2022-11-20T05:48:36;2.40;99.90
75442;DHT22;64019;48.312;14.226;2022-11-20T05:51:04;2.40;99.90
75442;DHT22;64019;48.312;14.226;2022-11-20T05:53:30;2.40;99.90
75442;DHT22;64019;48.312;14.226;2022-11-20T05:55:58;2.40;99.90
75442;DHT22;64019;48.312;14.226;2022-11-20T05:58:24;2.50;99.90
75442;DHT22;64019;48.312;14.226;2022-11-20T06:00:50;2.50;99.90
75442;DHT22;64019;48.312;14.226;2022-11-20T06:03:16;2.50;99.90
75442;DHT22;64019;48.312;14.226;2022-11-20T06:05:41;2.50;99.90
75442;DHT22;64019;48.312;14.226;2022-11-20T06:08:07;2.60;99.90
75442;DHT22;64019;48.312;14.226;2022-11-20T06:10:33;2.60;99.90
75442;DHT22;64019;48.312;14.226;2022-11-20T06:12:58;2.60;99.90
75442;DHT22;64019;48.312;14.226;2022-11-20T06:15:24;2.60;99.90
75442;DHT22;64019;48.312;14.226;2022-11-20T06:17:53;2.60;99.90
75442;DHT22;64019;48.312;14.226;2022-11-20T06:20:23;2.60;99.90
75442;DHT22;64019;48.312;14.226;2022-11-20T06:22:48;2.60;99.90
75442;DHT22;64019;48.312;14.226;2022-11-20T06:25:14;2.60;99.90
75442;DHT22;64019;48.312;14.226;2022-11-20T06:27:40;2.60;99.90
75442;DHT22;64019;48.312;14.226;2022-11-20T06:30:06;2.60;99.90
75442;DHT22;64019;48.312;14.226;2022-11-20T06:32:32;2.50;99.90
75442;DHT22;64019;48.312;14.226;2022-11-20T06:34:58;2.50;99.90
75442;DHT22;64019;48.312;14.226;2022-11-20T06:37:24;2.60;99.90
75442;DHT22;64019;48.312;14.226;2022-11-20T06:39:49;2.60;99.90
75442;DHT22;64019;48.312;14.226;2022-11-20T06:42:15;2.60;99.90
75442;DHT22;64019;48.312;14.226;2022-11-20T06:44:41;2.60;99.90
75442;DHT22;64019;48.312;14.226;2022-11-20T06:47:06;2.60;99.90
75442;DHT22;64019;48.312;14.226;2022-11-20T06:49:32;2.60;99.90
75442;DHT22;64019;48.312;14.226;2022-11-20T06:51:59;2.70;99.90
75442;DHT22;64019;48.312;14.226;2022-11-20T06:54:25;2.80;99.90
75442;DHT22;64019;48.312;14.226;2022-11-20T06:56:51;2.70;99.90
75442;DHT22;64019;48.312;14.226;2022-11-20T06:59:16;2.70;99.90
75442;DHT22;64019;48.312;14.226;2022-11-20T07:01:42;2.80;99.90
75442;DHT22;64019;48.312;14.226;2022-11-20T07:04:07;2.70;99.90
75442;DHT22;64019;48.312;14.226;2022-11-20T07:06:33;2.80;99.90
75442;DHT22;64019;48.312;14.226;2022-11-20T07:08:59;2.80;99.90
75442;DHT22;64019;48.312;14.226;2022-11-20T07:11:24;2.80;99.90
75442;DHT22;64019;48.312;14.226;2022-11-20T07:13:50;2.90;99.90
75442;DHT22;64019;48.312;14.226;2022-11-20T07:16:16;2.90;99.90
75442;DHT22;64019;48.312;14.226;2022-11-20T07:18:42;2.90;99.90
75442;DHT22;64019;48.312;14.226;2022-11-20T07:21:09;3.00;99.90
75442;DHT22;64019;48.312;14.226;2022-11-20T07:23:36;2.90;99.90
75442;DHT22;64019;48.312;14.226;2022-11-20T07:26:06;3.00;99.90
75442;DHT22;64019;48.312;14.226;2022-11-20T07:28:33;3.00;99.90
75442;DHT22;64019;48.312;14.226;2022-11-20T07:30:59;2.90;99.90
75442;DHT22;64019;48.312;14.226;2022-11-20T07:33:25;2.90;99.90
75442;DHT22;64019;48.312;14.226;2022-11-20T07:35:50;3.00;99.90
75442;DHT22;64019;48.312;14.226;2022-11-20T07:38:16;2.90;99.90
75442;DHT22;64019;48.312;14.226;2022-11-20T07:40:41;2.80;99.90
75442;DHT22;64019;48.312;14.226;2022-11-20T07:43:07;2.80;99.90
75442;DHT22;64019;48.312;14.226;2022-11-20T07:45:33;2.70;99.90
75442;DHT22;64019;48.312;14.226;2022-11-20T07:47:58;2.70;99.90
75442;DHT22;64019;48.312;14.226;2022-11-20T07:50:24;2.70;99.90
75442;DHT22;64019;48.312;14.226;2022-11-20T07:52:50;2.70;99.90
75442;DHT22;64019;48.312;14.226;2022-11-20T07:55:16;2.80;99.90
75442;DHT22;64019;48.312;14.226;2022-11-20T07:57:41;2.80;99.90
75442;DHT22;64019;48.312;14.226;2022-11-20T08:00:09;2.90;99.90
75442;DHT22;64019;48.312;14.226;2022-11-20T08:02:39;2.90;99.90
75442;DHT22;64019;48.312;14.226;2022-11-20T08:05:05;2.90;99.90
75442;DHT22;64019;48.312;14.226;2022-11-20T08:07:37;3.00;99.90
75442;DHT22;64019;48.312;14.226;2022-11-20T08:10:04;2.90;99.90
75442;DHT22;64019;48.312;14.226;2022-11-20T08:12:30;3.00;99.90
75442;DHT22;64019;48.312;14.226;2022-11-20T08:15:14;3.00;99.90
75442;DHT22;64019;48.312;14.226;2022-11-20T08:17:40;3.00;99.90
75442;DHT22;64019;48.312;14.226;2022-11-20T08:20:06;3.00;99.90
75442;DHT22;64019;48.312;14.226;2022-11-20T08:22:32;3.00;99.90
75442;DHT22;64019;48.312;14.226;2022-11-20T08:24:58;3.10;99.90
75442;DHT22;64019;48.312;14.226;2022-11-20T08:27:23;3.00;99.90
75442;DHT22;64019;48.312;14.226;2022-11-20T08:29:49;3.10;99.90
75442;DHT22;64019;48.312;14.226;2022-11-20T08:32:15;3.20;99.90
75442;DHT22;64019;48.312;14.226;2022-11-20T08:34:40;3.20;99.90
75442;DHT22;64019;48.312;14.226;2022-11-20T08:37:06;3.20;99.90
75442;DHT22;64019;48.312;14.226;2022-11-20T08:39:31;3.20;99.90
75442;DHT22;64019;48.312;14.226;2022-11-20T08:41:57;3.20;99.90
75442;DHT22;64019;48.312;14.226;2022-11-20T08:44:23;3.20;99.90
75442;DHT22;64019;48.312;14.226;2022-11-20T08:46:48;3.20;99.90
75442;DHT22;64019;48.312;14.226;2022-11-20T08:49:14;3.30;99.90
75442;DHT22;64019;48.312;14.226;2022-11-20T08:51:41;3.30;99.90
75442;DHT22;64019;48.312;14.226;2022-11-20T08:54:07;3.40;99.90
75442;DHT22;64019;48.312;14.226;2022-11-20T08:56:33;3.50;99.90
75442;DHT22;64019;48.312;14.226;2022-11-20T08:58:59;3.50;99.90
75442;DHT22;64019;48.312;14.226;2022-11-20T09:01:25;3.60;99.90
75442;DHT22;64019;48.312;14.226;2022-11-20T09:03:51;3.70;99.90
75442;DHT22;64019;48.312;14.226;2022-11-20T09:06:17;3.70;99.90
75442;DHT22;64019;48.312;14.226;2022-11-20T09:08:43;3.80;99.90
75442;DHT22;64019;48.312;14.226;2022-11-20T09:11:09;3.80;99.90
75442;DHT22;64019;48.312;14.226;2022-11-20T09:13:35;3.90;99.90
75442;DHT22;64019;48.312;14.226;2022-11-20T09:16:06;4.10;99.90
75442;DHT22;64019;48.312;14.226;2022-11-20T09:18:33;4.10;99.90
75442;DHT22;64019;48.312;14.226;2022-11-20T09:21:03;4.20;99.90
75442;DHT22;64019;48.312;14.226;2022-11-20T09:23:35;4.30;99.90
75442;DHT22;64019;48.312;14.226;2022-11-20T09:26:12;4.40;99.90
75442;DHT22;64019;48.312;14.226;2022-11-20T09:28:38;4.50;99.90
75442;DHT22;64019;48.312;14.226;2022-11-20T09:31:08;4.60;99.90
75442;DHT22;64019;48.312;14.226;2022-11-20T09:33:35;4.60;99.90
75442;DHT22;64019;48.312;14.226;2022-11-20T09:36:01;4.70;99.90
75442;DHT22;64019;48.312;14.226;2022-11-20T09:38:27;4.80;99.90
75442;DHT22;64019;48.312;14.226;2022-11-20T09:41:00;5.00;99.90
75442;DHT22;64019;48.312;14.226;2022-11-20T09:46:21;5.40;99.90
75442;DHT22;64019;48.312;14.226;2022-11-20T09:56:34;5.30;99.90
75442;DHT22;64019;48.312;14.226;2022-11-20T09:59:05;5.50;99.90
75442;DHT22;64019;48.312;14.226;2022-11-20T10:01:36;5.70;99.90
75442;DHT22;64019;48.312;14.226;2022-11-20T10:04:13;5.90;99.90
75442;DHT22;64019;48.312;14.226;2022-11-20T10:07:22;6.00;99.90
75442;DHT22;64019;48.312;14.226;2022-11-20T10:09:53;6.00;99.90
75442;DHT22;64019;48.312;14.226;2022-11-20T10:24:41;5.80;99.90
75442;DHT22;64019;48.312;14.226;2022-11-20T10:29:42;5.90;99.90
75442;DHT22;64019;48.312;14.226;2022-11-20T10:32:14;5.80;99.90
75442;DHT22;64019;48.312;14.226;2022-11-20T10:37:12;6.00;99.90
75442;DHT22;64019;48.312;14.226;2022-11-20T10:39:46;6.00;99.90
75442;DHT22;64019;48.312;14.226;2022-11-20T10:42:21;6.00;99.90
75442;DHT22;64019;48.312;14.226;2022-11-20T10:44:53;5.90;99.90
75442;DHT22;64019;48.312;14.226;2022-11-20T10:47:28;6.00;99.90
75442;DHT22;64019;48.312;14.226;2022-11-20T10:49:58;6.10;99.90
75442;DHT22;64019;48.312;14.226;2022-11-20T11:00:19;6.50;99.90
75442;DHT22;64019;48.312;14.226;2022-11-20T11:02:49;6.60;99.90
75442;DHT22;64019;48.312;14.226;2022-11-20T11:05:37;6.60;99.90
75442;DHT22;64019;48.312;14.226;2022-11-20T11:08:10;6.70;99.90
75442;DHT22;64019;48.312;14.226;2022-11-20T11:10:57;6.90;99.90
75442;DHT22;64019;48.312;14.226;2022-11-20T11:13:29;6.60;99.90
75442;DHT22;64019;48.312;14.226;2022-11-20T11:15:55;6.60;99.90
75442;DHT22;64019;48.312;14.226;2022-11-20T11:18:32;6.70;99.90
75442;DHT22;64019;48.312;14.226;2022-11-20T11:21:01;6.60;99.90
75442;DHT22;64019;48.312;14.226;2022-11-20T11:23:34;6.60;99.90
75442;DHT22;64019;48.312;14.226;2022-11-20T11:26:02;6.60;99.90
75442;DHT22;64019;48.312;14.226;2022-11-20T11:28:29;6.50;99.90
75442;DHT22;64019;48.312;14.226;2022-11-20T11:30:55;6.40;99.90
75442;DHT22;64019;48.312;14.226;2022-11-20T11:33:31;6.30;99.90
75442;DHT22;64019;48.312;14.226;2022-11-20T11:36:04;6.30;99.90
75442;DHT22;64019;48.312;14.226;2022-11-20T11:38:41;6.30;99.90
75442;DHT22;64019;48.312;14.226;2022-11-20T11:41:20;6.40;99.90
75442;DHT22;64019;48.312;14.226;2022-11-20T11:43:53;6.40;99.90
75442;DHT22;64019;48.312;14.226;2022-11-20T11:46:40;6.30;99.90
75442;DHT22;64019;48.312;14.226;2022-11-20T11:54:14;6.10;99.90
75442;DHT22;64019;48.312;14.226;2022-11-20T11:56:41;6.10;99.90
75442;DHT22;64019;48.312;14.226;2022-11-20T11:59:12;6.10;99.90
75442;DHT22;64019;48.312;14.226;2022-11-20T12:01:52;6.10;99.90
75442;DHT22;64019;48.312;14.226;2022-11-20T12:04:44;6.10;99.90
75442;DHT22;64019;48.312;14.226;2022-11-20T12:07:29;6.10;99.90
75442;DHT22;64019;48.312;14.226;2022-11-20T12:10:00;6.00;99.90
75442;DHT22;64019;48.312;14.226;2022-11-20T12:12:40;6.00;99.90
75442;DHT22;64019;48.312;14.226;2022-11-20T12:15:13;6.10;99.90
75442;DHT22;64019;48.312;14.226;2022-11-20T12:17:41;6.10;99.90
75442;DHT22;64019;48.312;14.226;2022-11-20T12:20:14;6.20;99.90
75442;DHT22;64019;48.312;14.226;2022-11-20T12:25:17;6.30;99.90
75442;DHT22;64019;48.312;14.226;2022-11-20T12:30:28;6.50;99.90
75442;DHT22;64019;48.312;14.226;2022-11-20T12:38:40;6.50;99.90
75442;DHT22;64019;48.312;14.226;2022-11-20T12:41:36;6.60;99.90
75442;DHT22;64019;48.312;14.226;2022-11-20T12:55:47;6.90;99.90
75442;DHT22;64019;48.312;14.226;2022-11-20T13:06:51;6.90;99.90
75442;DHT22;64019;48.312;14.226;2022-11-20T13:09:19;6.90;99.90
75442;DHT22;64019;48.312;14.226;2022-11-20T13:12:33;6.80;99.90
75442;DHT22;64019;48.312;14.226;2022-11-20T13:15:18;6.90;99.90
75442;DHT22;64019;48.312;14.226;2022-11-20T13:17:55;6.80;99.90
75442;DHT22;64019;48.312;14.226;2022-11-20T13:20:22;6.80;99.90
75442;DHT22;64019;48.312;14.226;2022-11-20T13:22:53;6.70;99.90
75442;DHT22;64019;48.312;14.226;2022-11-20T13:25:28;6.70;99.90
75442;DHT22;64019;48.312;14.226;2022-11-20T13:27:56;6.70;99.90
75442;DHT22;64019;48.312;14.226;2022-11-20T13:30:27;6.60;99.90
75442;DHT22;64019;48.312;14.226;2022-11-20T13:32:57;6.60;99.90
75442;DHT22;64019;48.312;14.226;2022-11-20T13:38:11;6.50;99.90
75442;DHT22;64019;48.312;14.226;2022-11-20T13:40:49;6.50;99.90
75442;DHT22;64019;48.312;14.226;2022-11-20T13:45:58;6.50;99.90
75442;DHT22;64019;48.312;14.226;2022-11-20T13:48:29;6.60;99.90
75442;DHT22;64019;48.312;14.226;2022-11-20T13:53:47;6.40;99.90
75442;DHT22;64019;48.312;14.226;2022-11-20T13:59:38;6.40;99.90
75442;DHT22;64019;48.312;14.226;2022-11-20T14:02:14;6.40;99.90
75442;DHT22;64019;48.312;14.226;2022-11-20T14:04:50;6.40;99.90
75442;DHT22;64019;48.312;14.226;2022-11-20T14:07:21;6.40;99.90
75442;DHT22;64019;48.312;14.226;2022-11-20T14:09:54;6.50;99.90
75442;DHT22;64019;48.312;14.226;2022-11-20T14:12:22;6.50;99.90
75442;DHT22;64019;48.312;14.226;2022-11-20T14:14:51;6.40;99.90
75442;DHT22;64019;48.312;14.226;2022-11-20T14:17:46;6.30;99.90
75442;DHT22;64019;48.312;14.226;2022-11-20T14:20:14;6.40;99.90
75442;DHT22;64019;48.312;14.226;2022-11-20T14:22:48;6.50;99.90
75442;DHT22;64019;48.312;14.226;2022-11-20T14:27:42;6.40;99.90
75442;DHT22;64019;48.312;14.226;2022-11-20T14:30:29;6.40;99.90
75442;DHT22;64019;48.312;14.226;2022-11-20T14:33:02;6.40;99.90
75442;DHT22;64019;48.312;14.226;2022-11-20T14:35:33;6.30;99.90
75442;DHT22;64019;48.312;14.226;2022-11-20T14:38:01;6.30;99.90
75442;DHT22;64019;48.312;14.226;2022-11-20T14:42:55;6.20;99.90
75442;DHT22;64019;48.312;14.226;2022-11-20T14:45:21;6.20;99.90
75442;DHT22;64019;48.312;14.226;2022-11-20T14:47:48;6.10;99.90
75442;DHT22;64019;48.312;14.226;2022-11-20T14:50:25;6.20;99.90
75442;DHT22;64019;48.312;14.226;2022-11-20T14:52:57;6.20;99.90
75442;DHT22;64019;48.312;14.226;2022-11-20T14:55:30;6.20;99.90
75442;DHT22;64019;48.312;14.226;2022-11-20T14:58:02;6.20;99.90
75442;DHT22;64019;48.312;14.226;2022-11-20T15:00:30;6.20;99.90
75442;DHT22;64019;48.312;14.226;2022-11-20T15:02:56;6.20;99.90
75442;DHT22;64019;48.312;14.226;2022-11-20T15:05:48;6.10;99.90
75442;DHT22;64019;48.312;14.226;2022-11-20T15:08:13;6.20;99.90
75442;DHT22;64019;48.312;14.226;2022-11-20T15:10:45;6.20;99.90
75442;DHT22;64019;48.312;14.226;2022-11-20T15:13:19;6.20;99.90
75442;DHT22;64019;48.312;14.226;2022-11-20T15:15:49;6.20;99.90
75442;DHT22;64019;48.312;14.226;2022-11-20T15:18:21;6.30;99.90
75442;DHT22;64019;48.312;14.226;2022-11-20T15:20:47;6.30;99.90
75442;DHT22;64019;48.312;14.226;2022-11-20T15:23:15;6.30;99.90
75442;DHT22;64019;48.312;14.226;2022-11-20T15:25:43;6.30;99.90
75442;DHT22;64019;48.312;14.226;2022-11-20T15:28:38;6.20;99.90
75442;DHT22;64019;48.312;14.226;2022-11-20T15:31:05;6.30;99.90
75442;DHT22;64019;48.312;14.226;2022-11-20T15:33:32;6.30;99.90
75442;DHT22;64019;48.312;14.226;2022-11-20T15:35:58;6.20;99.90
75442;DHT22;64019;48.312;14.226;2022-11-20T15:38:24;6.20;99.90
75442;DHT22;64019;48.312;14.226;2022-11-20T15:40:49;6.20;99.90
75442;DHT22;64019;48.312;14.226;2022-11-20T15:43:15;6.20;99.90
75442;DHT22;64019;48.312;14.226;2022-11-20T15:45:46;6.20;99.90
75442;DHT22;64019;48.312;14.226;2022-11-20T15:48:22;6.20;99.90
75442;DHT22;64019;48.312;14.226;2022-11-20T15:53:44;6.20;99.90
75442;DHT22;64019;48.312;14.226;2022-11-20T15:56:13;6.10;99.90
75442;DHT22;64019;48.312;14.226;2022-11-20T15:58:40;6.00;99.90
75442;DHT22;64019;48.312;14.226;2022-11-20T16:01:13;5.90;99.90
75442;DHT22;64019;48.312;14.226;2022-11-20T16:03:39;5.90;99.90
75442;DHT22;64019;48.312;14.226;2022-11-20T16:06:05;5.90;99.90
75442;DHT22;64019;48.312;14.226;2022-11-20T16:08:31;5.90;99.90
75442;DHT22;64019;48.312;14.226;2022-11-20T16:10:57;5.80;99.90
75442;DHT22;64019;48.312;14.226;2022-11-20T16:13:22;5.90;99.90
75442;DHT22;64019;48.312;14.226;2022-11-20T16:16:17;5.90;99.90
75442;DHT22;64019;48.312;14.226;2022-11-20T16:18:44;5.90;99.90
75442;DHT22;64019;48.312;14.226;2022-11-20T16:21:11;6.00;99.90
75442;DHT22;64019;48.312;14.226;2022-11-20T16:23:38;6.00;99.90
75442;DHT22;64019;48.312;14.226;2022-11-20T16:26:15;6.00;99.90
75442;DHT22;64019;48.312;14.226;2022-11-20T16:28:43;6.10;99.90
75442;DHT22;64019;48.312;14.226;2022-11-20T16:31:16;6.10;99.90
75442;DHT22;64019;48.312;14.226;2022-11-20T16:33:42;6.10;99.90
75442;DHT22;64019;48.312;14.226;2022-11-20T16:36:13;6.10;99.90
75442;DHT22;64019;48.312;14.226;2022-11-20T16:38:40;6.10;99.90
75442;DHT22;64019;48.312;14.226;2022-11-20T16:41:06;6.10;99.90
75442;DHT22;64019;48.312;14.226;2022-11-20T16:43:31;6.10;99.90
75442;DHT22;64019;48.312;14.226;2022-11-20T16:45:57;6.10;99.90
75442;DHT22;64019;48.312;14.226;2022-11-20T16:48:23;6.10;99.90
75442;DHT22;64019;48.312;14.226;2022-11-20T16:50:51;6.10;99.90
75442;DHT22;64019;48.312;14.226;2022-11-20T16:53:21;6.10;99.90
75442;DHT22;64019;48.312;14.226;2022-11-20T16:55:47;6.00;99.90
75442;DHT22;64019;48.312;14.226;2022-11-20T16:58:14;6.00;99.90
75442;DHT22;64019;48.312;14.226;2022-11-20T17:00:40;6.00;99.90
75442;DHT22;64019;48.312;14.226;2022-11-20T17:03:06;6.10;99.90
75442;DHT22;64019;48.312;14.226;2022-11-20T17:05:33;6.10;99.90
75442;DHT22;64019;48.312;14.226;2022-11-20T17:07:59;6.10;99.90
75442;DHT22;64019;48.312;14.226;2022-11-20T17:10:25;6.10;99.90
75442;DHT22;64019;48.312;14.226;2022-11-20T17:12:51;6.10;99.90
75442;DHT22;64019;48.312;14.226;2022-11-20T17:15:17;6.10;99.90
75442;DHT22;64019;48.312;14.226;2022-11-20T17:17:43;6.10;99.90